^^
Grace C. Lehan Memorial Weather Station Historical Data
Daily Summary for August 21, 2021 Units:  English    Metric   Both
Daily Weekly Monthly Yearly
  High: Low: Average:
Temperature: 76.3 °F 54.4 °F 65.2 °F
Dew Point: 58.6 °F 51.7 °F 54.5 °F
Humidity: 92% 47.2% 70%
Wind Speed: 2.9mph 0mph 0.2mph
Wind Gust: 12mph - -
Wind- - SW
Pressure: 29.99 in 29.84 in -
Precipitation: 0.00 in    
 
 
Tabular Data for August 21, 2021
Time Temperature Dew Point Pressure Wind Wind Speed Wind Gust Humidity Rainfall Rate (Hourly) solar
00:09 62.2 °F 53.8 °F 29.96 in Calm     74% 0.00 in 0 W/m2
00:14 62.2 °F 53.5 °F 29.96 in Calm     73.2% 0.00 in 0 W/m2
00:19 62.1 °F 53.4 °F 29.96 in Calm     72.9% 0.00 in 0 W/m2
00:24 62.1 °F 53.1 °F 29.96 in Calm     72.3% 0.00 in 0 W/m2
00:29 62 °F 53 °F 29.96 in Calm     72.2% 0.00 in 0 W/m2
00:34 62 °F 52.9 °F 29.96 in Calm     72% 0.00 in 0 W/m2
00:39 61.9 °F 52.8 °F 29.96 in Calm     72% 0.00 in 0 W/m2
00:44 61.9 °F 53.3 °F 29.96 in Calm     73.5% 0.00 in 0 W/m2
00:49 61.8 °F 53.5 °F 29.96 in Calm     74% 0.00 in 0 W/m2
00:54 61.7 °F 53.2 °F 29.96 in Calm     73.6% 0.00 in 0 W/m2
00:59 61.7 °F 52.9 °F 29.96 in Calm     73% 0.00 in 0 W/m2
01:04 61.6 °F 52.9 °F 29.96 in Calm     73% 0.00 in 0 W/m2
01:09 61.5 °F 52.9 °F 29.96 in Calm     73.4% 0.00 in 0 W/m2
01:14 61.4 °F 53.1 °F 29.96 in Calm     74% 0.00 in 0 W/m2
01:19 61.3 °F 53 °F 29.96 in Calm     74% 0.00 in 0 W/m2
01:24 61.2 °F 52.9 °F 29.96 in Calm     74% 0.00 in 0 W/m2
01:29 61.1 °F 52.7 °F 29.96 in Calm     74% 0.00 in 0 W/m2
01:34 60.9 °F 52.9 °F 29.96 in Calm     74.9% 0.00 in 0 W/m2
01:39 60.8 °F 52.9 °F 29.95 in Calm     75.2% 0.00 in 0 W/m2
01:44 60.7 °F 52.7 °F 29.95 in Calm     75% 0.00 in 0 W/m2
01:49 60.6 °F 52.7 °F 29.95 in Calm     75.3% 0.00 in 0 W/m2
01:54 60.5 °F 52.9 °F 29.95 in Calm     76% 0.00 in 0 W/m2
01:59 60.4 °F 52.8 °F 29.95 in Calm     76% 0.00 in 0 W/m2
02:04 60.3 °F 52.8 °F 29.95 in Calm     76.3% 0.00 in 0 W/m2
02:09 60.3 °F 53.1 °F 29.95 in Calm     77% 0.00 in 0 W/m2
02:14 60.2 °F 52.7 °F 29.95 in Calm     76.1% 0.00 in 0 W/m2
02:19 60.2 °F 52.6 °F 29.95 in Calm     76% 0.00 in 0 W/m2
02:24 60.2 °F 53.1 °F 29.95 in Calm     77.5% 0.00 in 0 W/m2
02:29 60.2 °F 53.3 °F 29.95 in Calm     77.9% 0.00 in 0 W/m2
02:34 60.1 °F 52.9 °F 29.95 in Calm     77% 0.00 in 0 W/m2
02:39 60.1 °F 52.9 °F 29.96 in Calm     77% 0.00 in 0 W/m2
02:44 60.1 °F 52.9 °F 29.96 in Calm     77.2% 0.00 in 0 W/m2
02:49 60.1 °F 53.2 °F 29.96 in Calm     78% 0.00 in 0 W/m2
02:54 60 °F 53.1 °F 29.96 in Calm     78% 0.00 in 0 W/m2
02:59 59.9 °F 53.1 °F 29.96 in Calm     78% 0.00 in 0 W/m2
03:04 59.8 °F 52.9 °F 29.96 in Calm     78% 0.00 in 0 W/m2
03:09 59.7 °F 52.8 °F 29.96 in Calm     78% 0.00 in 0 W/m2
03:14 59.6 °F 52.7 °F 29.96 in Calm     78% 0.00 in 0 W/m2
03:19 59.4 °F 52.7 °F 29.96 in Calm     78.4% 0.00 in 0 W/m2
03:24 59.3 °F 52.8 °F 29.96 in Calm     79% 0.00 in 0 W/m2
03:29 59.2 °F 53.3 °F 29.96 in Calm     80.7% 0.00 in 0 W/m2
03:34 58.9 °F 53.4 °F 29.96 in Calm     81.7% 0.00 in 0 W/m2
03:39 58.6 °F 53.2 °F 29.96 in Calm     82.2% 0.00 in 0 W/m2
03:44 58.3 °F 53.2 °F 29.96 in Calm     82.9% 0.00 in 0 W/m2
03:49 58.1 °F 53 °F 29.96 in Calm     83.1% 0.00 in 0 W/m2
03:54 58 °F 53.2 °F 29.96 in Calm     84% 0.00 in 0 W/m2
03:59 57.9 °F 53.1 °F 29.96 in Calm     84% 0.00 in 0 W/m2
04:00 57.8 °F 53 °F 29.96 in Calm     84% 0.00 in 0 W/m2
04:09 57.7 °F 53.2 °F 29.96 in Calm     84.9% 0.00 in 0 W/m2
04:14 57.6 °F 52.9 °F 29.96 in Calm     84.3% 0.00 in 0 W/m2
04:19 57.5 °F 53 °F 29.96 in Calm     85% 0.00 in 0 W/m2
04:24 57.4 °F 52.9 °F 29.96 in Calm     85% 0.00 in 0 W/m2
04:29 57.2 °F 53 °F 29.96 in Calm     85.7% 0.00 in 0 W/m2
04:34 57.1 °F 52.9 °F 29.95 in Calm     86% 0.00 in 0 W/m2
04:39 56.9 °F 52.8 °F 29.96 in Calm     86% 0.00 in 0 W/m2
04:44 56.8 °F 52.7 °F 29.95 in Calm     86% 0.00 in 0 W/m2
04:49 56.7 °F 52.5 °F 29.95 in Calm     86% 0.00 in 0 W/m2
04:54 56.5 °F 52.4 °F 29.95 in Calm     86% 0.00 in 0 W/m2
04:59 56.4 °F 52.4 °F 29.96 in Calm     86.6% 0.00 in 0 W/m2
05:04 56.3 °F 52.5 °F 29.96 in Calm     87% 0.00 in 0 W/m2
05:09 56.1 °F 52.5 °F 29.96 in Calm     87.5% 0.00 in 0 W/m2
05:14 56 °F 52.5 °F 29.96 in Calm     88% 0.00 in 0 W/m2
05:19 55.9 °F 52.4 °F 29.96 in Calm     88% 0.00 in 0 W/m2
05:24 55.7 °F 52.3 °F 29.96 in Calm     88% 0.00 in 0 W/m2
05:29 55.6 °F 52.2 °F 29.96 in Calm     88.2% 0.00 in 0 W/m2
05:34 55.5 °F 52.3 °F 29.96 in Calm     89% 0.00 in 0 W/m2
05:39 55.5 °F 52.3 °F 29.97 in Calm     89% 0.00 in 0 W/m2
05:44 55.5 °F 52.4 °F 29.97 in Calm     89.4% 0.00 in 0 W/m2
05:49 55.5 °F 52.6 °F 29.97 in Calm     90% 0.00 in 0 W/m2
05:54 55.5 °F 52.6 °F 29.97 in Calm     90% 0.00 in 0 W/m2
05:59 55.5 °F 52.6 °F 29.97 in Calm     90% 0.00 in 0 W/m2
06:04 55.5 °F 52.6 °F 29.96 in Calm     90% 0.00 in 0 W/m2
06:09 55.5 °F 52.6 °F 29.96 in Calm     90% 0.00 in 0 W/m2
06:14 55.5 °F 52.6 °F 29.96 in Calm     90% 0.00 in 0 W/m2
06:19 55.4 °F 52.5 °F 29.96 in Calm     90% 0.00 in 0 W/m2
06:24 55.3 °F 52.4 °F 29.96 in Calm     90% 0.00 in 0 W/m2
06:29 55.2 °F 52.3 °F 29.96 in Calm     90% 0.00 in 0 W/m2
06:34 55.1 °F 52.2 °F 29.96 in Calm     90% 0.00 in 0 W/m2
06:39 55.1 °F 52.2 °F 29.96 in Calm     90% 0.00 in 0 W/m2
06:44 55 °F 52.1 °F 29.96 in Calm     90% 0.00 in 0 W/m2
06:49 54.9 °F 52 °F 29.96 in Calm     90% 0.00 in 0 W/m2
06:54 54.8 °F 51.9 °F 29.96 in Calm     90% 0.00 in 0 W/m2
06:59 54.7 °F 51.8 °F 29.96 in Calm     90% 0.00 in 0 W/m2
07:04 54.6 °F 51.7 °F 29.96 in Calm     90% 0.00 in 0 W/m2
07:09 54.6 °F 52 °F 29.96 in Calm     91% 0.00 in 0 W/m2
07:14 54.6 °F 52 °F 29.97 in Calm     91% 0.00 in 5 W/m2
07:19 54.5 °F 52 °F 29.97 in Calm     91% 0.00 in 9 W/m2
07:24 54.5 °F 51.9 °F 29.97 in Calm     91% 0.00 in 12 W/m2
07:29 54.4 °F 51.9 °F 29.97 in Calm     91% 0.00 in 18 W/m2
07:34 54.4 °F 51.8 °F 29.98 in Calm     91% 0.00 in 21 W/m2
07:39 54.4 °F 51.8 °F 29.98 in Calm     91% 0.00 in 28 W/m2
07:44 54.4 °F 51.8 °F 29.98 in Calm     91% 0.00 in 33 W/m2
07:49 54.4 °F 51.8 °F 29.98 in Calm     91% 0.00 in 40 W/m2
07:54 54.5 °F 52.2 °F 29.98 in Calm     91.7% 0.00 in 47 W/m2
07:59 54.7 °F 52.4 °F 29.99 in Calm     92% 0.00 in 49 W/m2
08:00 54.8 °F 52.5 °F 29.98 in Calm     92% 0.00 in 49 W/m2
08:09 55.3 °F 53 °F 29.99 in Calm     92% 0.00 in 60 W/m2
08:14 55.5 °F 53.2 °F 29.99 in Calm     92% 0.00 in 69 W/m2
08:19 55.8 °F 53.5 °F 29.99 in Calm     91.8% 0.00 in 67 W/m2
08:24 56.2 °F 53.6 °F 29.99 in Calm     91.2% 0.00 in 67 W/m2
08:29 56.6 °F 53.9 °F 29.99 in Calm     90.8% 0.00 in 74 W/m2
08:34 57 °F 54.1 °F 29.99 in Calm     90% 0.00 in 95 W/m2
08:39 57.4 °F 54.3 °F 29.99 in Calm     89.4% 0.00 in 95 W/m2
08:44 57.7 °F 54.5 °F 29.99 in Calm     88.9% 0.00 in 102 W/m2
08:49 58.2 °F 54.7 °F 29.98 in Calm     88% 0.00 in 218 W/m2
08:54 58.8 °F 55.2 °F 29.98 in Calm     87.9% 0.00 in 227 W/m2
08:59 59.5 °F 55.5 °F 29.98 in Calm     86.8% 0.00 in 206 W/m2
09:04 60.2 °F 55.7 °F 29.98 in Calm     85.1% 0.00 in 279 W/m2
09:09 61.1 °F 56 °F 29.98 in Calm     83.5% 0.00 in 313 W/m2
09:14 62.2 °F 56.4 °F 29.98 in Calm     81.5% 0.00 in 343 W/m2
09:19 63.3 °F 56.9 °F 29.98 in Calm     79.6% 0.00 in 334 W/m2
09:24 64.4 °F 57 °F 29.98 in Calm     77% 0.00 in 348 W/m2
09:29 65.4 °F 57.6 °F 29.98 in Calm     76% 0.00 in 350 W/m2
09:34 66.2 °F 57.6 °F 29.98 in Calm     73.9% 0.00 in 392 W/m2
09:39 66.8 °F 57.5 °F 29.98 in Calm     72% 0.00 in 401 W/m2
09:44 67.3 °F 57.7 °F 29.98 in Calm     71.4% 0.00 in 401 W/m2
09:49 67.8 °F 57.9 °F 29.97 in Calm     70.7% 0.00 in 427 W/m2
09:54 68.3 °F 57.9 °F 29.97 in Calm     69.3% 0.00 in 427 W/m2
09:59 68.9 °F 58.3 °F 29.97 in Calm     68.9% 0.00 in 431 W/m2
10:04 69.5 °F 58 °F 29.97 in Calm     66.9% 0.00 in 432 W/m2
10:09 70 °F 58.1 °F 29.97 in Calm     65.9% 0.00 in 492 W/m2
10:14 70.4 °F 57.8 °F 29.97 in Calm     64.3% 0.00 in 504 W/m2
10:19 70.9 °F 58.1 °F 29.97 in Calm     64% 0.00 in 570 W/m2
10:24 71.4 °F 58.4 °F 29.97 in Calm     63.4% 0.00 in 598 W/m2
10:29 72 °F 58.6 °F 29.97 in Calm     62.9% 0.00 in 568 W/m2
10:34 72.4 °F 58.6 °F 29.97 in Calm     61.9% 0.00 in 598 W/m2
10:39 72.9 °F 58 °F 29.97 in Calm     59.5% 0.00 in 548 W/m2
10:44 73.3 °F 58 °F 29.97 in Calm     58.7% 0.00 in 647 W/m2
10:49 73.8 °F 58.1 °F 29.97 in Calm   1 mph 58% 0.00 in 708 W/m2
10:54 74.1 °F 57.5 °F 29.96 in West 0.1 mph 2 mph 56.3% 0.00 in 708 W/m2
10:59 73.9 °F 57.2 °F 29.96 in Calm   2 mph 56% 0.00 in 689 W/m2
11:04 73.3 °F 57 °F 29.96 in West 0.1 mph 3 mph 56.6% 0.00 in 250 W/m2
11:09 72.5 °F 56.8 °F 29.95 in Calm   3 mph 57.9% 0.00 in 243 W/m2
11:14 71.7 °F 56.8 °F 29.95 in Calm   3 mph 59.3% 0.00 in 279 W/m2
11:19 71.5 °F 57.4 °F 29.95 in WSW 0.1 mph 3 mph 61.2% 0.00 in 290 W/m2
11:24 71.9 °F 57.7 °F 29.95 in WSW 0.1 mph 3 mph 61% 0.00 in 338 W/m2
11:29 72.6 °F 57.9 °F 29.95 in Calm   3 mph 60% 0.00 in 278 W/m2
11:34 73.1 °F 57.9 °F 29.94 in Calm   3 mph 58.8% 0.00 in 445 W/m2
11:39 73.7 °F 57.9 °F 29.94 in SW 0.4 mph 4 mph 57.9% 0.00 in 445 W/m2
11:44 74.1 °F 57.8 °F 29.94 in South 0.3 mph 4 mph 56.8% 0.00 in 580 W/m2
11:49 74.4 °F 57.3 °F 29.94 in South 0.3 mph 4 mph 55.2% 0.00 in 610 W/m2
11:54 74.5 °F 57.3 °F 29.94 in Calm   4 mph 55% 0.00 in 613 W/m2
11:59 74.5 °F 57.6 °F 29.94 in South 0.1 mph 4 mph 55.5% 0.00 in 598 W/m2
12:00 74.6 °F 56.9 °F 29.94 in Calm   4 mph 54% 0.00 in 545 W/m2
12:09 75.1 °F 58.1 °F 29.94 in Calm   1 mph 55.4% 0.00 in 599 W/m2
12:14 75.5 °F 57.3 °F 29.94 in SSW 0.1 mph 1 mph 53.3% 0.00 in 301 W/m2
12:19 75.7 °F 57.2 °F 29.94 in Calm   1 mph 52.8% 0.00 in 301 W/m2
12:24 75.7 °F 56.9 °F 29.94 in SSW 0.1 mph 2 mph 52.1% 0.00 in 272 W/m2
12:29 75.4 °F 57.4 °F 29.94 in SW 0.3 mph 3 mph 53.4% 0.00 in 341 W/m2
12:34 75.3 °F 57.5 °F 29.94 in South 0.9 mph 6 mph 54% 0.00 in 322 W/m2
12:39 75.2 °F 57.3 °F 29.94 in SSW 0.4 mph 6 mph 53.9% 0.00 in 592 W/m2
12:44 75.1 °F 57.1 °F 29.93 in WSW 0.9 mph 6 mph 53.4% 0.00 in 355 W/m2
12:49 75.2 °F 57.1 °F 29.93 in WSW 0.1 mph 6 mph 53.3% 0.00 in 156 W/m2
12:54 75.3 °F 56.3 °F 29.92 in SW 0.9 mph 6 mph 51.7% 0.00 in 74 W/m2
12:59 75.2 °F 55.3 °F 29.92 in SW 2.7 mph 9 mph 49.9% 0.00 in 137 W/m2
13:04 75.1 °F 55.4 °F 29.92 in WSW 1.4 mph 9 mph 50.4% 0.00 in 232 W/m2
13:09 75.2 °F 56.6 °F 29.92 in WSW 1 mph 7 mph 52.3% 0.00 in 455 W/m2
13:14 75.4 °F 56.4 °F 29.91 in SW 1.7 mph 7 mph 51.8% 0.00 in 555 W/m2
13:19 75.5 °F 56.7 °F 29.91 in SW 0.8 mph 7 mph 52.1% 0.00 in 408 W/m2
13:24 75.5 °F 56.6 °F 29.91 in SW 0.7 mph 7 mph 52% 0.00 in 199 W/m2
13:29 75.5 °F 57.1 °F 29.90 in SW 1.6 mph 7 mph 52.7% 0.00 in 169 W/m2
13:34 75.5 °F 56.7 °F 29.90 in SW 0.6 mph 7 mph 52.2% 0.00 in 153 W/m2
13:39 75.3 °F 56.2 °F 29.90 in SSW 2.5 mph 9 mph 51.5% 0.00 in 606 W/m2
13:44 75.3 °F 56.1 °F 29.90 in WSW 1.7 mph 9 mph 51.3% 0.00 in 606 W/m2
13:49 75.5 °F 56 °F 29.90 in SW 1.2 mph 9 mph 50.8% 0.00 in 297 W/m2
13:54 75.4 °F 55.6 °F 29.90 in SW 2.9 mph 12 mph 50% 0.00 in 390 W/m2
13:59 75.4 °F 56.3 °F 29.90 in WSW 0.6 mph 12 mph 51.5% 0.00 in 132 W/m2
14:04 75.3 °F 55.9 °F 29.90 in WSW 1.8 mph 12 mph 50.9% 0.00 in 132 W/m2
14:09 75.3 °F 55.8 °F 29.89 in WSW 1.5 mph 10 mph 50.6% 0.00 in 243 W/m2
14:14 75.4 °F 55.8 °F 29.89 in SW 1.1 mph 10 mph 50.5% 0.00 in 127 W/m2
14:19 75.5 °F 55.6 °F 29.89 in West 0.7 mph 10 mph 50% 0.00 in 186 W/m2
14:24 75.7 °F 56 °F 29.89 in SW 2.9 mph 11 mph 50.4% 0.00 in 380 W/m2
14:29 75.9 °F 55.2 °F 29.89 in SW 0.9 mph 11 mph 48.7% 0.00 in 237 W/m2
14:34 76 °F 55.6 °F 29.88 in SSW 0.5 mph 11 mph 49.3% 0.00 in 130 W/m2
14:39 76 °F 55.3 °F 29.88 in SW 0.4 mph 4 mph 48.8% 0.00 in 151 W/m2
14:44 76.1 °F 56 °F 29.88 in SW 0.4 mph 4 mph 49.8% 0.00 in 216 W/m2
14:49 76.3 °F 55.6 °F 29.87 in SW 0.4 mph 4 mph 48.8% 0.00 in 146 W/m2
14:54 76.3 °F 55.3 °F 29.87 in SW 0.9 mph 5 mph 48.3% 0.00 in 241 W/m2
14:59 76.2 °F 55.7 °F 29.87 in WSW 0.1 mph 5 mph 49% 0.00 in 135 W/m2
15:04 76.3 °F 55.5 °F 29.87 in SW 0.7 mph 6 mph 48.7% 0.00 in 163 W/m2
15:09 76.3 °F 55.2 °F 29.87 in SSW 0.6 mph 6 mph 48.1% 0.00 in 149 W/m2
15:14 76.2 °F 54.6 °F 29.87 in South 0.7 mph 6 mph 47.2% 0.00 in 248 W/m2
15:19 76.1 °F 54.7 °F 29.86 in South 0.3 mph 6 mph 47.4% 0.00 in 221 W/m2
15:24 76.1 °F 54.7 °F 29.86 in SSW 0.6 mph 6 mph 47.5% 0.00 in 355 W/m2
15:29 75.9 °F 54.5 °F 29.86 in SSW 1.2 mph 6 mph 47.5% 0.00 in 223 W/m2
15:34 75.6 °F 54.3 °F 29.86 in SW 0.8 mph 6 mph 47.5% 0.00 in 123 W/m2
15:39 75.2 °F 54.6 °F 29.86 in WSW 0.7 mph 7 mph 48.8% 0.00 in 109 W/m2
15:44 74.8 °F 54.5 °F 29.86 in Calm   7 mph 49.2% 0.00 in 118 W/m2
15:49 74.5 °F 54.1 °F 29.86 in WSW 0.1 mph 7 mph 49% 0.00 in 134 W/m2
15:54 74.2 °F 53.8 °F 29.86 in Calm   7 mph 49% 0.00 in 139 W/m2
15:59 74 °F 54.2 °F 29.86 in SW 0.1 mph 7 mph 50% 0.00 in 137 W/m2
16:00 73.9 °F 54.1 °F 29.85 in Calm   7 mph 50% 0.00 in 86 W/m2
16:09 73.6 °F 54 °F 29.85 in SSW 0.3 mph 3 mph 50.3% 0.00 in 114 W/m2
16:14 73.4 °F 53.7 °F 29.85 in SSW 0.2 mph 3 mph 50% 0.00 in 123 W/m2
16:19 73.3 °F 54.3 °F 29.85 in SSW 0.7 mph 6 mph 51.3% 0.00 in 120 W/m2
16:24 73.3 °F 53.9 °F 29.85 in South 1.1 mph 6 mph 50.6% 0.00 in 100 W/m2
16:29 73.1 °F 53.9 °F 29.85 in South 0.9 mph 6 mph 51% 0.00 in 77 W/m2
16:34 73 °F 53.9 °F 29.84 in South 0.3 mph 6 mph 51.1% 0.00 in 93 W/m2
16:39 72.9 °F 54.3 °F 29.85 in South 0.4 mph 3 mph 52.1% 0.00 in 91 W/m2
16:44 72.8 °F 53.9 °F 29.85 in South 0.4 mph 4 mph 51.4% 0.00 in 72 W/m2
16:49 72.8 °F 54.1 °F 29.84 in South 0.7 mph 4 mph 52% 0.00 in 53 W/m2
16:54 72.6 °F 54.4 °F 29.84 in South 1 mph 4 mph 52.7% 0.00 in 47 W/m2
16:59 72.4 °F 54.5 °F 29.84 in South 1.1 mph 7 mph 53.4% 0.00 in 44 W/m2
17:04 72 °F 54.3 °F 29.84 in SSE 0.7 mph 7 mph 53.7% 0.00 in 23 W/m2
17:09 71.6 °F 54.1 °F 29.84 in South 1.3 mph 5 mph 54% 0.00 in 23 W/m2
17:14 71.2 °F 54.4 °F 29.84 in SSW 0.4 mph 5 mph 55.5% 0.00 in 23 W/m2
17:18 71 °F 54.7 °F 29.84 in South 0.1 mph 5 mph 56.4% 0.00 in 25 W/m2
Hartford County Weather
Compliments of Weather Underground - 2 mb